Time;durP1;ratioP1;P1;durP2;ratioP2;P2;SDS_P1;SDS_P2;PMS_P1;PMS_P2;Temp;Humidity;BMP_temperature;BMP_pressure;BME280_temperature;BME280_humidity;BME280_pressure;Samples;Min_cycle;Max_cycle;Signal;HPM_P1;HPM_P2
2022/07/19 00:02:07;;;;;;;;;;;27.00;94.00;;;;;;5085483;28;19919;-58
2022/07/19 00:04:34;;;;;;;;;;;27.00;94.10;;;;;;5085056;28;19900;-62
2022/07/19 00:07:01;;;;;;;;;;;27.00;94.10;;;;;;5082690;28;19916;-62
2022/07/19 00:09:27;;;;;;;;;;;27.00;93.80;;;;;;5073680;28;19983;-60
2022/07/19 00:11:54;;;;;;;;;;;26.90;93.70;;;;;;5066044;28;20096;-61
2022/07/19 00:14:21;;;;;;;;;;;26.90;93.90;;;;;;5075750;28;19901;-61
2022/07/19 00:16:47;;;;;;;;;;;26.80;93.90;;;;;;5064838;28;19981;-61
2022/07/19 00:19:13;;;;;;;;;;;26.80;94.00;;;;;;5067487;28;19944;-60
2022/07/19 00:21:39;;;;;;;;;;;26.70;94.00;;;;;;5073827;28;20111;-61
2022/07/19 00:24:06;;;;;;;;;;;26.70;94.10;;;;;;5082071;28;19901;-61
2022/07/19 00:26:32;;;;;;;;;;;26.70;94.40;;;;;;5081249;28;19909;-61
2022/07/19 00:29:00;;;;;;;;;;;26.60;94.40;;;;;;5073352;28;19968;-60
2022/07/19 00:31:27;;;;;;;;;;;26.60;94.50;;;;;;5064579;28;20181;-61
2022/07/19 00:33:53;;;;;;;;;;;26.60;94.50;;;;;;5074480;28;20207;-62
2022/07/19 00:36:20;;;;;;;;;;;26.60;94.50;;;;;;5068663;28;19943;-60
2022/07/19 00:38:46;;;;;;;;;;;26.60;94.60;;;;;;5064274;28;19908;-61
2022/07/19 00:41:13;;;;;;;;;;;26.60;94.60;;;;;;5064826;28;19980;-58
2022/07/19 00:43:42;;;;;;;;;;;26.60;94.50;;;;;;5066106;28;19935;-60
2022/07/19 00:46:26;;;;;;;;;;;26.70;94.50;;;;;;5074718;28;19917;-60
2022/07/19 00:48:53;;;;;;;;;;;26.70;94.50;;;;;;5064537;28;19915;-61
2022/07/19 00:51:19;;;;;;;;;;;26.60;94.50;;;;;;5079925;28;20143;-60
2022/07/19 00:53:46;;;;;;;;;;;26.70;94.50;;;;;;5064253;28;19901;-61
2022/07/19 00:56:15;;;;;;;;;;;26.60;94.40;;;;;;5064788;28;19909;-61
2022/07/19 00:58:42;;;;;;;;;;;26.70;94.40;;;;;;5072386;28;19907;-60
2022/07/19 01:01:08;;;;;;;;;;;26.70;94.40;;;;;;5084534;28;20099;-62
2022/07/19 01:03:35;;;;;;;;;;;26.70;94.60;;;;;;5084956;28;19947;-61
2022/07/19 01:06:01;;;;;;;;;;;26.70;94.40;;;;;;5079413;28;19909;-61
2022/07/19 01:08:31;;;;;;;;;;;26.70;94.40;;;;;;5082236;28;19900;-62
2022/07/19 01:10:57;;;;;;;;;;;26.70;94.40;;;;;;5050337;28;19954;-59
2022/07/19 01:13:24;;;;;;;;;;;26.70;94.50;;;;;;5066485;28;19967;-60
2022/07/19 01:15:50;;;;;;;;;;;26.70;94.40;;;;;;5074848;28;20250;-62
2022/07/19 01:18:16;;;;;;;;;;;26.70;94.40;;;;;;5087674;28;19938;-61
2022/07/19 01:20:42;;;;;;;;;;;26.70;94.40;;;;;;5085477;28;19927;-60
2022/07/19 01:23:09;;;;;;;;;;;26.70;94.40;;;;;;5080424;28;19967;-60
2022/07/19 01:25:35;;;;;;;;;;;26.70;94.40;;;;;;5083482;28;19900;-58
2022/07/19 01:28:03;;;;;;;;;;;26.70;94.40;;;;;;5087485;28;19900;-60
2022/07/19 01:30:32;;;;;;;;;;;26.60;94.30;;;;;;5068807;28;19942;-60
2022/07/19 01:32:58;;;;;;;;;;;26.60;94.40;;;;;;5087003;28;20073;-60
2022/07/19 01:35:25;;;;;;;;;;;26.60;94.40;;;;;;5087697;28;19963;-59
2022/07/19 01:37:52;;;;;;;;;;;26.60;94.50;;;;;;5081851;28;20200;-63
2022/07/19 01:40:18;;;;;;;;;;;26.60;94.40;;;;;;5075232;28;19905;-63
2022/07/19 01:42:46;;;;;;;;;;;26.60;94.50;;;;;;5089088;28;20181;-63
2022/07/19 01:45:12;;;;;;;;;;;26.60;94.40;;;;;;5071595;28;20115;-62
2022/07/19 01:47:40;;;;;;;;;;;26.60;94.40;;;;;;5089469;28;19908;-62
2022/07/19 01:50:07;;;;;;;;;;;26.60;94.50;;;;;;5089144;28;19904;-62
2022/07/19 01:52:34;;;;;;;;;;;26.60;94.50;;;;;;5089429;28;19915;-63
2022/07/19 01:55:00;;;;;;;;;;;26.60;94.50;;;;;;5069928;28;19904;-62
2022/07/19 01:57:29;;;;;;;;;;;26.60;94.50;;;;;;5088504;28;19972;-63
2022/07/19 01:59:56;;;;;;;;;;;26.60;94.40;;;;;;5087326;28;20100;-63
2022/07/19 02:02:22;;;;;;;;;;;26.60;94.30;;;;;;5069775;28;19904;-62
2022/07/19 02:04:48;;;;;;;;;;;26.60;94.40;;;;;;5087914;28;20103;-62
2022/07/19 02:07:15;;;;;;;;;;;26.60;94.30;;;;;;5087993;28;19901;-62
2022/07/19 02:09:41;;;;;;;;;;;26.60;94.30;;;;;;5081002;28;19913;-63
2022/07/19 02:12:07;;;;;;;;;;;26.50;94.30;;;;;;5074973;28;19942;-62
2022/07/19 02:14:33;;;;;;;;;;;26.50;94.30;;;;;;5067941;28;19909;-61
2022/07/19 02:17:00;;;;;;;;;;;26.50;94.30;;;;;;5067435;28;19907;-62
2022/07/19 02:19:26;;;;;;;;;;;26.50;94.30;;;;;;5066844;28;19909;-62
2022/07/19 02:21:52;;;;;;;;;;;26.50;94.40;;;;;;5066928;28;19951;-61
2022/07/19 02:24:18;;;;;;;;;;;26.50;94.40;;;;;;5067149;28;19909;-60
2022/07/19 02:26:44;;;;;;;;;;;26.50;94.40;;;;;;5067099;28;19909;-61
2022/07/19 02:29:10;;;;;;;;;;;26.50;94.40;;;;;;5067133;28;19986;-64
2022/07/19 02:31:37;;;;;;;;;;;26.50;94.40;;;;;;5066740;28;19905;-64
2022/07/19 02:34:03;;;;;;;;;;;26.50;94.50;;;;;;5066641;28;20105;-64
2022/07/19 02:36:29;;;;;;;;;;;26.50;94.50;;;;;;5066616;28;19901;-64
2022/07/19 02:38:55;;;;;;;;;;;26.50;94.50;;;;;;5072983;28;19958;-64
2022/07/19 02:41:22;;;;;;;;;;;26.40;94.50;;;;;;5071015;28;19900;-64
2022/07/19 02:43:48;;;;;;;;;;;26.40;94.60;;;;;;5066677;28;19954;-65
2022/07/19 02:46:14;;;;;;;;;;;26.40;94.60;;;;;;5066399;28;20007;-64
2022/07/19 02:48:40;;;;;;;;;;;26.40;94.70;;;;;;5066365;28;19908;-63
2022/07/19 02:51:10;;;;;;;;;;;26.40;94.70;;;;;;5066322;28;20184;-64
2022/07/19 02:53:36;;;;;;;;;;;26.40;94.70;;;;;;5067419;28;19909;-64
2022/07/19 02:56:02;;;;;;;;;;;26.40;94.70;;;;;;5066247;28;19972;-62
2022/07/19 02:58:28;;;;;;;;;;;26.40;94.70;;;;;;5066662;28;19909;-63
2022/07/19 03:00:55;;;;;;;;;;;26.40;94.70;;;;;;5066162;28;19919;-62
2022/07/19 03:06:06;;;;;;;;;;;26.40;94.80;;;;;;5066835;28;19911;-61
2022/07/19 03:08:32;;;;;;;;;;;26.40;94.80;;;;;;5066214;28;19904;-63
2022/07/19 03:10:58;;;;;;;;;;;26.40;94.80;;;;;;5066335;28;19916;-64
2022/07/19 03:13:24;;;;;;;;;;;26.40;94.80;;;;;;5066369;28;20069;-62
2022/07/19 03:15:50;;;;;;;;;;;26.40;94.80;;;;;;5065953;28;20139;-63
2022/07/19 03:18:16;;;;;;;;;;;26.40;94.80;;;;;;5065869;28;19947;-63
2022/07/19 03:20:42;;;;;;;;;;;26.40;94.90;;;;;;5066065;28;19904;-62
2022/07/19 03:23:09;;;;;;;;;;;26.40;94.90;;;;;;5066191;28;19911;-64
2022/07/19 03:25:35;;;;;;;;;;;26.40;94.90;;;;;;5066240;28;20050;-64
2022/07/19 03:28:01;;;;;;;;;;;26.30;94.90;;;;;;5065954;28;19909;-64
2022/07/19 03:30:27;;;;;;;;;;;26.30;94.90;;;;;;5064757;28;19912;-63
2022/07/19 03:32:53;;;;;;;;;;;26.30;94.90;;;;;;5081531;28;19951;-61
2022/07/19 03:35:20;;;;;;;;;;;26.30;94.90;;;;;;5065969;28;19951;-63
2022/07/19 03:37:46;;;;;;;;;;;26.30;94.90;;;;;;5065575;28;19923;-63
2022/07/19 03:40:13;;;;;;;;;;;26.30;94.90;;;;;;5065352;28;19947;-62
2022/07/19 03:42:39;;;;;;;;;;;26.30;94.90;;;;;;5065344;28;20088;-62
2022/07/19 03:45:05;;;;;;;;;;;26.30;94.90;;;;;;5069766;28;19959;-62
2022/07/19 03:47:32;;;;;;;;;;;26.30;94.90;;;;;;5084819;28;19908;-62
2022/07/19 03:49:58;;;;;;;;;;;26.30;94.90;;;;;;5084844;28;19905;-62
2022/07/19 03:52:24;;;;;;;;;;;26.30;94.90;;;;;;5085283;28;20149;-61
2022/07/19 03:54:50;;;;;;;;;;;26.30;94.90;;;;;;5085612;28;19939;-60
2022/07/19 03:57:17;;;;;;;;;;;26.30;95.00;;;;;;5085281;28;19915;-61
2022/07/19 03:59:43;;;;;;;;;;;26.30;95.00;;;;;;5085330;28;19958;-61
2022/07/19 04:02:09;;;;;;;;;;;26.30;95.00;;;;;;5084952;28;19904;-61
2022/07/19 04:04:35;;;;;;;;;;;26.30;95.00;;;;;;5084722;28;20196;-59
2022/07/19 04:07:01;;;;;;;;;;;26.30;95.00;;;;;;5085010;28;19967;-62
2022/07/19 04:09:28;;;;;;;;;;;26.30;95.00;;;;;;5085266;28;19908;-62
2022/07/19 04:11:54;;;;;;;;;;;26.30;95.00;;;;;;5084695;28;19900;-62
2022/07/19 04:14:20;;;;;;;;;;;26.30;95.10;;;;;;5085195;28;19912;-62
2022/07/19 04:16:46;;;;;;;;;;;26.20;95.10;;;;;;5085037;28;19931;-62
2022/07/19 04:19:12;;;;;;;;;;;26.30;95.10;;;;;;5084848;28;19908;-62
2022/07/19 04:21:38;;;;;;;;;;;26.20;95.00;;;;;;5084589;28;19900;-62
2022/07/19 04:24:05;;;;;;;;;;;26.20;95.00;;;;;;5084976;28;19908;-63
2022/07/19 04:26:31;;;;;;;;;;;26.20;95.00;;;;;;5084609;28;19988;-62
2022/07/19 04:28:57;;;;;;;;;;;26.20;95.10;;;;;;5085054;28;20188;-64
2022/07/19 04:31:23;;;;;;;;;;;26.20;95.10;;;;;;5084356;28;19904;-64
2022/07/19 04:33:49;;;;;;;;;;;26.20;95.20;;;;;;5084437;28;19916;-63
2022/07/19 04:36:49;;;;;;;;;;;26.20;95.10;;;;;;5084452;28;19907;-63
2022/07/19 04:39:15;;;;;;;;;;;26.20;95.10;;;;;;5084729;28;20188;-63
2022/07/19 04:41:41;;;;;;;;;;;26.20;95.10;;;;;;5083978;28;19904;-64
2022/07/19 04:44:08;;;;;;;;;;;26.10;95.00;;;;;;5084790;28;19966;-64
2022/07/19 04:46:34;;;;;;;;;;;26.10;95.10;;;;;;5084299;28;20189;-63
2022/07/19 04:49:00;;;;;;;;;;;26.20;95.10;;;;;;5084480;28;19939;-64
2022/07/19 04:51:26;;;;;;;;;;;26.10;95.00;;;;;;5084146;28;19927;-63
2022/07/19 04:53:52;;;;;;;;;;;26.20;95.00;;;;;;5084409;28;19915;-63
2022/07/19 04:56:19;;;;;;;;;;;26.10;95.00;;;;;;5084216;28;19938;-63
2022/07/19 04:58:45;;;;;;;;;;;26.20;95.00;;;;;;5084302;28;19915;-63
2022/07/19 05:01:11;;;;;;;;;;;26.10;95.00;;;;;;5083801;28;19919;-63
2022/07/19 05:03:39;;;;;;;;;;;26.10;94.90;;;;;;5083605;28;20210;-63
2022/07/19 05:06:06;;;;;;;;;;;26.10;94.90;;;;;;5084252;28;20207;-63
2022/07/19 05:08:32;;;;;;;;;;;26.10;94.90;;;;;;5083912;28;19920;-63
2022/07/19 05:10:58;;;;;;;;;;;26.10;94.90;;;;;;5083271;28;19927;-63
2022/07/19 05:13:24;;;;;;;;;;;26.10;94.90;;;;;;5083093;28;19913;-63
2022/07/19 05:15:50;;;;;;;;;;;26.10;94.90;;;;;;5065130;28;19904;-63
2022/07/19 05:18:16;;;;;;;;;;;26.10;94.90;;;;;;5082898;28;20141;-63
2022/07/19 05:20:42;;;;;;;;;;;26.10;94.90;;;;;;5083113;28;20227;-63
2022/07/19 05:23:08;;;;;;;;;;;26.10;94.90;;;;;;5083171;28;19919;-63
2022/07/19 05:25:35;;;;;;;;;;;26.10;95.00;;;;;;5082740;28;19912;-63
2022/07/19 05:28:01;;;;;;;;;;;26.10;95.00;;;;;;5083013;28;19912;-64
2022/07/19 05:30:27;;;;;;;;;;;26.00;94.90;;;;;;5064986;28;19908;-63
2022/07/19 05:32:53;;;;;;;;;;;26.00;94.90;;;;;;5082695;28;19942;-62
2022/07/19 05:35:19;;;;;;;;;;;26.00;95.00;;;;;;5082845;28;19946;-63
2022/07/19 05:37:45;;;;;;;;;;;26.00;95.00;;;;;;5082765;28;19904;-64
2022/07/19 05:40:11;;;;;;;;;;;26.00;95.00;;;;;;5082901;28;19904;-64
2022/07/19 05:42:37;;;;;;;;;;;26.00;95.00;;;;;;5082615;28;20188;-64
2022/07/19 05:45:04;;;;;;;;;;;26.00;95.00;;;;;;5082681;28;19912;-63
2022/07/19 05:47:30;;;;;;;;;;;26.00;95.00;;;;;;5082766;28;19942;-64
2022/07/19 05:49:59;;;;;;;;;;;26.00;95.20;;;;;;5082573;28;19909;-61
2022/07/19 05:52:25;;;;;;;;;;;25.90;94.90;;;;;;5064935;28;19911;-61
2022/07/19 05:54:51;;;;;;;;;;;26.00;95.00;;;;;;5086900;28;19912;-62
2022/07/19 05:57:17;;;;;;;;;;;25.90;95.00;;;;;;5086087;28;19936;-62
2022/07/19 05:59:45;;;;;;;;;;;25.90;95.00;;;;;;5086809;28;19991;-62
2022/07/19 06:02:11;;;;;;;;;;;25.90;95.10;;;;;;5086440;28;19913;-62
2022/07/19 06:04:37;;;;;;;;;;;25.90;95.10;;;;;;5086616;28;20208;-62
2022/07/19 06:07:03;;;;;;;;;;;25.90;95.10;;;;;;5086158;28;19912;-62
2022/07/19 06:09:30;;;;;;;;;;;25.90;95.10;;;;;;5086540;28;19951;-62
2022/07/19 06:11:56;;;;;;;;;;;25.90;95.10;;;;;;5086015;28;20230;-62
2022/07/19 06:14:22;;;;;;;;;;;25.90;95.10;;;;;;5087536;28;19908;-62
2022/07/19 06:16:48;;;;;;;;;;;25.90;95.10;;;;;;5087223;28;20199;-61
2022/07/19 06:19:14;;;;;;;;;;;25.90;95.20;;;;;;5087183;28;19909;-62
2022/07/19 06:21:40;;;;;;;;;;;25.90;95.10;;;;;;5087050;28;19915;-62
2022/07/19 06:24:07;;;;;;;;;;;25.90;95.10;;;;;;5087317;28;19908;-62
2022/07/19 06:26:33;;;;;;;;;;;25.90;95.10;;;;;;5086610;28;19908;-62
2022/07/19 06:28:59;;;;;;;;;;;25.90;95.00;;;;;;5069154;28;20097;-62
2022/07/19 06:31:25;;;;;;;;;;;25.90;95.00;;;;;;5086687;28;19943;-63
2022/07/19 06:33:51;;;;;;;;;;;25.90;95.00;;;;;;5086905;28;19909;-63
2022/07/19 06:36:18;;;;;;;;;;;25.90;95.00;;;;;;5086912;28;19942;-63
2022/07/19 06:38:45;;;;;;;;;;;25.90;95.10;;;;;;5087347;28;20074;-63
2022/07/19 06:41:11;;;;;;;;;;;25.90;95.10;;;;;;5086480;28;19908;-63
2022/07/19 06:43:38;;;;;;;;;;;25.90;95.10;;;;;;5087018;28;20097;-62
2022/07/19 06:46:05;;;;;;;;;;;25.90;95.10;;;;;;5086628;28;19908;-63
2022/07/19 06:48:31;;;;;;;;;;;25.90;95.00;;;;;;5086308;28;19912;-61
2022/07/19 06:50:57;;;;;;;;;;;25.90;95.00;;;;;;5086624;28;19920;-63
2022/07/19 06:53:23;;;;;;;;;;;25.80;95.00;;;;;;5086568;28;19908;-63
2022/07/19 06:55:50;;;;;;;;;;;25.90;95.00;;;;;;5086490;28;19979;-63
2022/07/19 06:58:16;;;;;;;;;;;25.80;95.00;;;;;;5086446;28;19979;-62
2022/07/19 07:00:42;;;;;;;;;;;25.80;95.00;;;;;;5086138;28;19959;-62
2022/07/19 07:03:08;;;;;;;;;;;25.80;95.00;;;;;;5086469;28;20088;-63
2022/07/19 07:05:35;;;;;;;;;;;25.80;95.00;;;;;;5085825;28;19904;-62
2022/07/19 07:08:01;;;;;;;;;;;25.80;95.00;;;;;;5086181;28;19913;-62
2022/07/19 07:10:27;;;;;;;;;;;25.80;95.00;;;;;;5086090;28;19909;-63
2022/07/19 07:12:53;;;;;;;;;;;25.80;95.10;;;;;;5086026;28;19919;-62
2022/07/19 07:15:19;;;;;;;;;;;25.80;95.10;;;;;;5085896;28;19911;-63
2022/07/19 07:17:45;;;;;;;;;;;25.80;95.10;;;;;;5085851;28;19908;-64
2022/07/19 07:20:12;;;;;;;;;;;25.80;95.10;;;;;;5085699;28;19904;-63
2022/07/19 07:22:38;;;;;;;;;;;25.80;95.10;;;;;;5085945;28;19904;-62
2022/07/19 07:25:05;;;;;;;;;;;25.80;95.20;;;;;;5085860;28;19904;-62
2022/07/19 07:27:31;;;;;;;;;;;25.80;95.20;;;;;;5085563;28;19942;-63
2022/07/19 07:29:58;;;;;;;;;;;25.80;95.20;;;;;;5086025;28;19930;-64
2022/07/19 07:32:26;;;;;;;;;;;25.80;95.20;;;;;;5085850;28;19968;-63
2022/07/19 07:34:53;;;;;;;;;;;25.80;95.20;;;;;;5085896;28;20101;-63
2022/07/19 07:37:19;;;;;;;;;;;25.80;95.30;;;;;;5085598;28;19965;-63
2022/07/19 07:39:45;;;;;;;;;;;25.80;95.30;;;;;;5085922;28;19913;-63
2022/07/19 07:42:11;;;;;;;;;;;25.80;95.20;;;;;;5067556;28;19905;-60
2022/07/19 07:44:37;;;;;;;;;;;25.80;95.20;;;;;;5085958;28;20126;-61
2022/07/19 07:47:03;;;;;;;;;;;25.80;95.30;;;;;;5085360;28;19946;-60
2022/07/19 07:49:30;;;;;;;;;;;25.80;95.30;;;;;;5086690;28;19920;-63
2022/07/19 07:51:56;;;;;;;;;;;25.70;95.30;;;;;;5086445;28;19905;-62
2022/07/19 07:54:22;;;;;;;;;;;25.80;95.30;;;;;;5086056;28;20104;-62
2022/07/19 07:56:48;;;;;;;;;;;25.80;95.30;;;;;;5085281;28;20211;-62
2022/07/19 07:59:15;;;;;;;;;;;25.80;95.30;;;;;;5067407;28;19912;-62
2022/07/19 08:01:43;;;;;;;;;;;25.80;95.30;;;;;;5085667;28;19916;-64
2022/07/19 08:04:09;;;;;;;;;;;25.70;95.40;;;;;;5085052;28;19912;-62
2022/07/19 08:06:36;;;;;;;;;;;25.70;95.40;;;;;;5085608;28;19944;-64
2022/07/19 08:09:03;;;;;;;;;;;25.70;95.40;;;;;;5085752;28;19912;-63
2022/07/19 08:11:29;;;;;;;;;;;25.70;95.40;;;;;;5067588;28;19908;-65
2022/07/19 08:13:58;;;;;;;;;;;25.70;95.40;;;;;;5085468;28;19912;-62
2022/07/19 08:16:24;;;;;;;;;;;25.70;95.40;;;;;;5084352;28;19944;-64
2022/07/19 08:18:51;;;;;;;;;;;25.70;95.40;;;;;;5085435;28;19939;-63
2022/07/19 08:21:17;;;;;;;;;;;25.70;95.50;;;;;;5084619;28;19912;-66
2022/07/19 08:23:43;;;;;;;;;;;25.70;95.50;;;;;;5085207;28;19935;-66
2022/07/19 08:26:09;;;;;;;;;;;25.70;95.50;;;;;;5084900;28;19911;-64
2022/07/19 08:28:36;;;;;;;;;;;25.70;95.50;;;;;;5084952;28;19913;-65
2022/07/19 08:31:02;;;;;;;;;;;25.70;95.50;;;;;;5084529;28;19916;-64
2022/07/19 08:33:28;;;;;;;;;;;25.70;95.50;;;;;;5084845;28;19920;-65
2022/07/19 08:35:54;;;;;;;;;;;25.70;95.50;;;;;;5084564;28;19967;-63
2022/07/19 08:38:20;;;;;;;;;;;25.70;95.50;;;;;;5085334;28;19919;-62
2022/07/19 08:40:50;;;;;;;;;;;25.70;95.50;;;;;;5084437;28;20096;-61
2022/07/19 08:43:16;;;;;;;;;;;25.70;95.70;;;;;;5084776;28;20206;-61
2022/07/19 08:45:42;;;;;;;;;;;25.70;95.50;;;;;;5085150;28;19946;-62
2022/07/19 08:48:09;;;;;;;;;;;25.70;95.50;;;;;;5084499;28;19920;-63
2022/07/19 08:50:35;;;;;;;;;;;25.70;95.50;;;;;;5066617;28;19909;-62
2022/07/19 08:53:02;;;;;;;;;;;25.70;95.50;;;;;;5084594;28;20139;-63
2022/07/19 08:55:28;;;;;;;;;;;25.70;95.60;;;;;;5084567;28;20184;-63
2022/07/19 08:57:57;;;;;;;;;;;25.70;95.60;;;;;;5084419;28;20069;-62
2022/07/19 09:00:24;;;;;;;;;;;25.70;95.60;;;;;;5083932;28;19925;-61
2022/07/19 09:02:54;;;;;;;;;;;25.70;95.60;;;;;;5084279;28;19919;-63
2022/07/19 09:05:21;;;;;;;;;;;25.70;95.60;;;;;;5084199;28;19911;-62
2022/07/19 09:08:07;;;;;;;;;;;25.70;95.60;;;;;;5084324;28;20255;-64
2022/07/19 09:10:34;;;;;;;;;;;25.60;95.60;;;;;;5074004;28;19979;-64
2022/07/19 09:13:01;;;;;;;;;;;25.70;95.60;;;;;;5084318;28;19979;-64
2022/07/19 09:15:38;;;;;;;;;;;25.60;95.60;;;;;;5084239;28;20192;-64
2022/07/19 09:18:08;;;;;;;;;;;25.60;95.60;;;;;;5084214;28;19919;-63
2022/07/19 09:20:34;;;;;;;;;;;25.60;95.60;;;;;;5084356;28;19905;-64
2022/07/19 09:23:01;;;;;;;;;;;25.60;95.50;;;;;;5084660;28;19912;-64
2022/07/19 09:25:34;;;;;;;;;;;25.60;95.50;;;;;;5084005;28;19905;-63
2022/07/19 09:28:00;;;;;;;;;;;25.60;95.50;;;;;;5086633;28;19912;-63
2022/07/19 09:30:40;;;;;;;;;;;25.60;95.50;;;;;;5088272;28;19972;-64
2022/07/19 09:33:10;;;;;;;;;;;25.60;95.50;;;;;;5088212;28;19913;-63
2022/07/19 09:35:38;;;;;;;;;;;25.60;95.50;;;;;;5088270;28;19943;-63
2022/07/19 09:38:17;;;;;;;;;;;25.60;95.40;;;;;;5087840;28;19913;-63
2022/07/19 09:40:43;;;;;;;;;;;25.60;95.50;;;;;;5088143;28;19976;-64
2022/07/19 09:43:09;;;;;;;;;;;25.60;95.40;;;;;;5069964;28;20132;-63
2022/07/19 09:45:36;;;;;;;;;;;25.60;95.40;;;;;;5087813;28;19971;-62
2022/07/19 09:48:03;;;;;;;;;;;25.60;95.40;;;;;;5087700;28;19920;-63
2022/07/19 09:50:30;;;;;;;;;;;25.60;95.40;;;;;;5087713;28;19909;-63
2022/07/19 09:53:01;;;;;;;;;;;25.60;95.50;;;;;;5087412;28;19912;-62
2022/07/19 09:55:27;;;;;;;;;;;25.60;95.50;;;;;;5087767;28;19983;-63
2022/07/19 09:57:55;;;;;;;;;;;25.60;95.50;;;;;;5087388;28;20197;-63
2022/07/19 10:00:22;;;;;;;;;;;25.60;95.50;;;;;;5087752;28;19935;-61
2022/07/19 10:02:50;;;;;;;;;;;25.60;95.50;;;;;;5087701;28;19924;-62
2022/07/19 10:05:16;;;;;;;;;;;25.60;95.50;;;;;;5087326;28;20215;-62
2022/07/19 10:07:43;;;;;;;;;;;25.60;95.60;;;;;;5087179;28;19905;-62
2022/07/19 10:10:10;;;;;;;;;;;25.60;95.60;;;;;;5087106;28;20203;-62
2022/07/19 10:12:40;;;;;;;;;;;25.50;95.50;;;;;;5087477;28;19904;-62
2022/07/19 10:15:07;;;;;;;;;;;25.60;95.60;;;;;;5087136;28;19905;-62
2022/07/19 10:17:41;;;;;;;;;;;25.60;95.60;;;;;;5087048;28;19946;-63
2022/07/19 10:20:09;;;;;;;;;;;25.60;95.70;;;;;;5087408;28;20133;-62
2022/07/19 10:22:38;;;;;;;;;;;25.50;95.70;;;;;;5087108;28;20097;-62
2022/07/19 10:25:04;;;;;;;;;;;25.50;95.70;;;;;;5087049;28;19975;-63
2022/07/19 10:27:31;;;;;;;;;;;25.50;95.70;;;;;;5086797;28;19905;-62
2022/07/19 10:29:57;;;;;;;;;;;25.50;95.70;;;;;;5087024;28;19915;-62
2022/07/19 10:32:28;;;;;;;;;;;25.50;95.70;;;;;;5087100;28;20139;-63
2022/07/19 10:35:13;;;;;;;;;;;25.50;95.70;;;;;;5086798;28;19940;-63
2022/07/19 10:37:40;;;;;;;;;;;25.50;95.70;;;;;;5086933;28;20145;-63
2022/07/19 10:40:06;;;;;;;;;;;25.50;95.80;;;;;;5085983;28;19904;-62
2022/07/19 10:42:32;;;;;;;;;;;25.50;95.80;;;;;;5086605;28;19911;-63
2022/07/19 10:45:01;;;;;;;;;;;25.50;95.80;;;;;;5087095;28;19904;-63
2022/07/19 10:47:39;;;;;;;;;;;25.50;95.80;;;;;;5086518;28;20184;-62
2022/07/19 10:50:14;;;;;;;;;;;25.50;95.80;;;;;;5086674;28;19924;-64
2022/07/19 10:52:42;;;;;;;;;;;25.50;95.80;;;;;;5086825;28;19905;-62
2022/07/19 10:55:14;;;;;;;;;;;25.50;95.70;;;;;;5087646;28;19912;-64
2022/07/19 10:57:40;;;;;;;;;;;25.50;95.70;;;;;;5069719;28;20135;-62
2022/07/19 11:00:26;;;;;;;;;;;25.50;95.90;;;;;;5086798;28;20298;-63
2022/07/19 11:02:53;;;;;;;;;;;25.50;95.70;;;;;;5086594;28;19919;-64
2022/07/19 11:05:22;;;;;;;;;;;25.50;95.70;;;;;;5086250;28;20193;-64
2022/07/19 11:07:49;;;;;;;;;;;25.50;95.70;;;;;;5086265;28;19920;-64
2022/07/19 11:10:22;;;;;;;;;;;25.50;95.70;;;;;;5086300;28;19912;-63
2022/07/19 11:12:49;;;;;;;;;;;25.50;95.70;;;;;;5085980;28;19927;-64
2022/07/19 11:15:16;;;;;;;;;;;25.50;95.90;;;;;;5086019;28;19909;-64
2022/07/19 11:18:00;;;;;;;;;;;25.50;95.70;;;;;;5086482;28;19905;-65
2022/07/19 11:20:27;;;;;;;;;;;25.50;95.70;;;;;;5086180;28;19908;-63
2022/07/19 11:22:56;;;;;;;;;;;25.50;95.70;;;;;;5086286;28;19915;-63
2022/07/19 11:25:26;;;;;;;;;;;25.50;95.80;;;;;;5085469;28;19935;-63
2022/07/19 11:27:52;;;;;;;;;;;25.50;95.80;;;;;;5086079;28;19908;-63
2022/07/19 11:30:20;;;;;;;;;;;25.50;95.80;;;;;;5085631;28;19913;-63
2022/07/19 11:32:51;;;;;;;;;;;25.50;95.80;;;;;;5085598;28;20136;-63
2022/07/19 11:35:17;;;;;;;;;;;25.50;95.90;;;;;;5085735;28;20135;-64
2022/07/19 11:37:43;;;;;;;;;;;25.50;95.90;;;;;;5085481;28;19905;-65
2022/07/19 11:40:10;;;;;;;;;;;25.50;95.90;;;;;;5085468;28;20189;-64
2022/07/19 11:42:40;;;;;;;;;;;25.50;95.90;;;;;;5085579;28;20127;-64
2022/07/19 11:45:16;;;;;;;;;;;25.50;95.90;;;;;;5085513;28;19971;-63
2022/07/19 11:47:43;;;;;;;;;;;25.60;96.00;;;;;;5085407;28;19904;-63
2022/07/19 11:50:11;;;;;;;;;;;25.50;96.00;;;;;;5084446;28;19912;-62
2022/07/19 11:52:49;;;;;;;;;;;25.50;96.00;;;;;;5084781;28;19909;-63
2022/07/19 11:55:16;;;;;;;;;;;25.50;95.90;;;;;;5085437;28;20219;-63
2022/07/19 11:57:42;;;;;;;;;;;25.50;95.90;;;;;;5085175;28;19904;-63
2022/07/19 12:00:10;;;;;;;;;;;25.60;95.90;;;;;;5084896;28;19916;-63
2022/07/19 12:02:57;;;;;;;;;;;25.60;95.90;;;;;;5085195;28;19975;-64
2022/07/19 12:05:26;;;;;;;;;;;25.60;96.00;;;;;;5085024;28;19905;-63
2022/07/19 12:07:54;;;;;;;;;;;25.60;95.90;;;;;;5085255;28;19954;-64
2022/07/19 12:10:40;;;;;;;;;;;25.60;95.90;;;;;;5084967;28;20189;-64
2022/07/19 12:13:09;;;;;;;;;;;25.60;95.90;;;;;;5085025;28;19912;-64
2022/07/19 12:15:52;;;;;;;;;;;25.60;95.90;;;;;;5084819;28;19904;-62
2022/07/19 12:18:20;;;;;;;;;;;25.60;95.90;;;;;;5084837;28;19912;-67
2022/07/19 12:21:06;;;;;;;;;;;25.60;95.90;;;;;;5067440;28;19905;-64
2022/07/19 12:23:32;;;;;;;;;;;25.60;95.90;;;;;;5085291;28;19928;-65
2022/07/19 12:26:05;;;;;;;;;;;25.70;96.10;;;;;;5084898;28;19912;-64
2022/07/19 12:28:31;;;;;;;;;;;25.70;96.00;;;;;;5084619;28;19916;-64
2022/07/19 12:31:04;;;;;;;;;;;25.70;96.00;;;;;;5084745;28;19915;-64
2022/07/19 12:33:30;;;;;;;;;;;25.70;96.10;;;;;;5084985;28;19912;-65
2022/07/19 12:35:56;;;;;;;;;;;25.70;96.00;;;;;;5084589;28;19976;-64
2022/07/19 12:38:32;;;;;;;;;;;25.70;96.00;;;;;;5084856;28;20069;-63
2022/07/19 12:41:06;;;;;;;;;;;25.70;96.10;;;;;;5084600;28;19912;-62
2022/07/19 12:43:32;;;;;;;;;;;25.70;96.00;;;;;;5085125;28;20261;-63
2022/07/19 12:46:01;;;;;;;;;;;25.70;96.00;;;;;;5085185;28;19905;-64
2022/07/19 12:48:27;;;;;;;;;;;25.70;95.90;;;;;;5084463;28;19912;-62
2022/07/19 12:50:53;;;;;;;;;;;25.70;95.60;;;;;;5066636;28;19916;-63
2022/07/19 12:53:20;;;;;;;;;;;25.70;95.60;;;;;;5084521;28;19946;-62
2022/07/19 12:55:47;;;;;;;;;;;25.80;95.70;;;;;;5084893;28;19913;-65
2022/07/19 12:58:14;;;;;;;;;;;25.80;95.70;;;;;;5084471;28;19905;-64
2022/07/19 13:00:44;;;;;;;;;;;25.80;95.70;;;;;;5083893;28;19921;-63
2022/07/19 13:03:10;;;;;;;;;;;25.90;95.70;;;;;;5083899;28;19904;-61
2022/07/19 13:05:36;;;;;;;;;;;25.90;95.50;;;;;;5084330;28;19988;-63
2022/07/19 13:08:03;;;;;;;;;;;25.90;95.40;;;;;;5084667;28;19971;-64
2022/07/19 13:10:29;;;;;;;;;;;25.90;95.40;;;;;;5084105;28;19916;-63
2022/07/19 13:12:55;;;;;;;;;;;26.00;95.50;;;;;;5084306;28;19947;-63
2022/07/19 13:15:21;;;;;;;;;;;26.00;95.40;;;;;;5084273;28;19913;-63
2022/07/19 13:17:48;;;;;;;;;;;26.00;95.30;;;;;;5084042;28;19905;-63
2022/07/19 13:20:14;;;;;;;;;;;26.00;95.30;;;;;;5083979;28;19951;-62
2022/07/19 13:22:41;;;;;;;;;;;26.00;95.20;;;;;;5084346;28;19904;-62
2022/07/19 13:25:11;;;;;;;;;;;26.10;95.20;;;;;;5084879;28;19920;-64
2022/07/19 13:27:37;;;;;;;;;;;26.10;95.10;;;;;;5083885;28;20130;-62
2022/07/19 13:30:04;;;;;;;;;;;26.10;95.00;;;;;;5084602;28;19917;-63
2022/07/19 13:32:30;;;;;;;;;;;26.10;95.20;;;;;;5084994;28;19911;-63
2022/07/19 13:34:56;;;;;;;;;;;26.10;95.20;;;;;;5066071;28;19918;-64
2022/07/19 13:37:22;;;;;;;;;;;26.10;94.90;;;;;;5084037;28;19928;-64
2022/07/19 13:39:48;;;;;;;;;;;26.20;95.10;;;;;;5083951;28;19924;-63
2022/07/19 13:42:15;;;;;;;;;;;26.20;94.80;;;;;;5083705;28;19909;-64
2022/07/19 13:44:41;;;;;;;;;;;26.20;94.90;;;;;;5084266;28;19912;-62
2022/07/19 13:47:07;;;;;;;;;;;26.30;95.00;;;;;;5084286;28;19904;-64
2022/07/19 13:49:33;;;;;;;;;;;26.30;95.20;;;;;;5083485;28;20193;-63
2022/07/19 13:51:59;;;;;;;;;;;26.30;95.20;;;;;;5083621;28;19912;-63
2022/07/19 13:54:25;;;;;;;;;;;26.30;95.00;;;;;;5083672;28;19904;-63
2022/07/19 13:56:52;;;;;;;;;;;26.30;94.90;;;;;;5084190;28;19940;-61
2022/07/19 13:59:18;;;;;;;;;;;26.30;94.70;;;;;;5084125;28;19913;-63
2022/07/19 14:01:44;;;;;;;;;;;26.30;94.80;;;;;;5083773;28;20203;-62
2022/07/19 14:04:11;;;;;;;;;;;26.40;94.90;;;;;;5083374;28;20011;-63
2022/07/19 14:06:37;;;;;;;;;;;26.40;94.90;;;;;;5083981;28;19920;-62
2022/07/19 14:09:03;;;;;;;;;;;26.40;94.80;;;;;;5083833;28;19912;-63
2022/07/19 14:11:29;;;;;;;;;;;26.40;94.80;;;;;;5083679;28;19917;-62
2022/07/19 14:13:56;;;;;;;;;;;26.40;94.80;;;;;;5084040;28;19909;-62
2022/07/19 14:16:23;;;;;;;;;;;26.50;95.00;;;;;;5087333;28;19919;-62
2022/07/19 14:18:49;;;;;;;;;;;26.50;94.50;;;;;;5086663;28;19904;-63
2022/07/19 14:21:16;;;;;;;;;;;26.50;94.40;;;;;;5087300;28;19912;-63